Time,TemperatureF,DewpointF,PressureIn,WindDirection,WindDirectionDegrees,WindSpeedMPH,WindSpeedGustMPH,Humidity,HourlyPrecipIn,Conditions,Clouds,dailyrainin,SoftwareType,DateUTC
2013-05-07 12:01:00,67.0,55.0,29.92,NE,43,1.0,7.0,66,0.00,,,0.00,,2013-05-07 17:01:00,
2013-05-07 12:12:00,67.0,55.0,29.92,NE,43,1.0,7.0,66,0.00,,,0.00,,2013-05-07 17:12:00,
2013-05-07 12:21:00,67.0,56.0,29.92,NNE,28,1.0,8.0,67,0.00,,,0.00,,2013-05-07 17:21:00,
2013-05-07 12:31:00,68.0,55.0,29.92,ENE,72,1.0,7.0,63,0.00,,,0.00,,2013-05-07 17:31:00,
2013-05-07 12:41:00,68.0,55.0,29.92,ENE,72,1.0,7.0,63,0.00,,,0.00,,2013-05-07 17:41:00,
2013-05-07 12:52:00,68.0,55.0,29.92,ENE,72,1.0,7.0,63,0.00,,,0.00,,2013-05-07 17:52:00,
2013-05-07 13:01:00,69.0,55.0,29.92,ENE,65,1.0,4.0,62,0.00,,,0.00,,2013-05-07 18:01:00,
2013-05-07 13:11:00,69.0,55.0,29.92,ENE,65,1.0,4.0,62,0.00,,,0.00,,2013-05-07 18:11:00,
2013-05-07 13:21:00,69.0,55.0,29.92,ENE,63,1.0,6.0,61,0.00,,,0.00,,2013-05-07 18:21:00,
2013-05-07 13:31:00,70.0,55.0,29.91,NE,49,1.0,6.0,59,0.00,,,0.00,,2013-05-07 18:31:00,
2013-05-07 13:41:00,70.0,55.0,29.91,NE,49,1.0,6.0,59,0.00,,,0.00,,2013-05-07 18:41:00,
2013-05-07 13:51:00,69.0,55.0,29.91,NE,50,1.0,5.0,60,0.00,,,0.00,,2013-05-07 18:51:00,
2013-05-07 14:02:00,70.0,54.0,29.91,North,357,0.0,3.0,56,0.00,,,0.00,,2013-05-07 19:02:00,
2013-05-07 14:11:00,70.0,54.0,29.91,North,357,0.0,3.0,56,0.00,,,0.00,,2013-05-07 19:11:00,
2013-05-07 14:21:00,70.0,55.0,29.91,North,358,0.0,1.0,59,0.00,,,0.00,,2013-05-07 19:21:00,
2013-05-07 14:32:00,69.0,55.0,29.91,North,0,0.0,0.0,62,0.00,,,0.00,,2013-05-07 19:32:00,
2013-05-07 14:42:00,69.0,55.0,29.91,North,0,0.0,0.0,62,0.00,,,0.00,,2013-05-07 19:42:00,
2013-05-07 14:52:00,71.0,55.0,29.90,NNW,335,0.0,2.0,58,0.00,,,0.00,,2013-05-07 19:52:00,
2013-05-07 15:02:00,71.0,55.0,29.90,NNW,337,1.0,11.0,57,0.00,,,0.00,,2013-05-07 20:02:00,
2013-05-07 15:11:00,71.0,55.0,29.90,NNW,337,1.0,11.0,57,0.00,,,0.00,,2013-05-07 20:11:00,
2013-05-07 15:22:00,70.0,55.0,29.90,North,8,0.0,4.0,59,0.00,,,0.00,,2013-05-07 20:22:00,
2013-05-07 15:32:00,70.0,54.0,29.90,NNW,348,0.0,5.0,57,0.00,,,0.00,,2013-05-07 20:32:00,
2013-05-07 15:42:00,70.0,54.0,29.90,NNW,348,0.0,5.0,57,0.00,,,0.00,,2013-05-07 20:42:00,
2013-05-07 15:52:00,71.0,55.0,29.90,NNW,331,0.0,2.0,57,0.00,,,0.00,,2013-05-07 20:52:00,
2013-05-07 16:01:00,71.0,55.0,29.90,NW,322,0.0,5.0,58,0.00,,,0.00,,2013-05-07 21:01:00,
2013-05-07 16:11:00,71.0,55.0,29.90,NW,322,0.0,5.0,58,0.00,,,0.00,,2013-05-07 21:11:00,
2013-05-07 16:21:00,70.0,55.0,29.89,North,0,0.0,0.0,58,0.00,,,0.00,,2013-05-07 21:21:00,
2013-05-07 16:32:00,70.0,55.0,29.89,North,0,0.0,0.0,58,0.00,,,0.00,,2013-05-07 21:32:00,
2013-05-07 16:42:00,70.0,55.0,29.89,North,0,0.0,0.0,58,0.00,,,0.00,,2013-05-07 21:42:00,
2013-05-07 16:53:00,70.0,55.0,29.91,North,0,0.0,0.0,58,0.00,,,0.00,,2013-05-07 21:53:00,
2013-05-07 17:02:00,69.0,56.0,29.89,North,0,0.0,0.0,64,0.00,,,0.00,,2013-05-07 22:02:00,
2013-05-07 17:13:00,69.0,56.0,29.89,North,0,0.0,0.0,64,0.00,,,0.00,,2013-05-07 22:13:00,
2013-05-07 17:22:00,70.0,57.0,29.89,North,0,0.0,0.0,63,0.00,,,0.00,,2013-05-07 22:22:00,
2013-05-07 17:33:00,70.0,56.0,29.89,NW,310,0.0,3.0,61,0.00,,,0.00,,2013-05-07 22:33:00,
2013-05-07 17:42:00,69.0,56.0,29.89,WNW,287,1.0,3.0,64,0.00,,,0.00,,2013-05-07 22:42:00,
2013-05-07 17:52:00,69.0,56.0,29.89,WNW,287,1.0,3.0,64,0.00,,,0.00,,2013-05-07 22:52:00,
2013-05-07 18:02:00,69.0,58.0,29.89,North,0,0.0,0.0,67,0.00,,,0.00,,2013-05-07 23:02:00,
2013-05-07 18:12:00,69.0,58.0,29.89,North,0,0.0,0.0,67,0.00,,,0.00,,2013-05-07 23:12:00,
2013-05-07 18:21:00,69.0,58.0,29.89,North,0,0.0,0.0,69,0.00,,,0.00,,2013-05-07 23:21:00,
2013-05-07 18:32:00,69.0,59.0,29.89,North,0,0.0,0.0,71,0.00,,,0.00,,2013-05-07 23:32:00,
2013-05-07 18:41:00,69.0,59.0,29.89,North,0,0.0,0.0,71,0.00,,,0.00,,2013-05-07 23:41:00,
2013-05-07 18:52:00,69.0,59.0,29.89,North,0,0.0,0.0,71,0.00,,,0.00,,2013-05-07 23:52:00,
2013-05-07 19:02:00,69.0,59.0,29.90,North,0,0.0,0.0,71,0.00,,,0.00,,2013-05-08 00:02:00,
2013-05-07 19:11:00,69.0,59.0,29.90,North,0,0.0,0.0,71,0.00,,,0.00,,2013-05-08 00:11:00,
2013-05-07 19:21:00,69.0,59.0,29.91,North,0,0.0,0.0,71,0.00,,,0.00,,2013-05-08 00:21:00,
2013-05-07 19:32:00,69.0,59.0,29.91,North,0,0.0,0.0,71,0.00,,,0.00,,2013-05-08 00:32:00,
2013-05-07 19:42:00,69.0,59.0,29.91,North,0,0.0,0.0,71,0.00,,,0.00,,2013-05-08 00:42:00,
2013-05-07 19:52:00,69.0,59.0,29.91,North,0,0.0,0.0,71,0.00,,,0.00,,2013-05-08 00:52:00,
2013-05-07 20:02:00,69.0,59.0,29.91,North,0,0.0,0.0,71,0.00,,,0.00,,2013-05-08 01:02:00,
2013-05-07 20:11:00,69.0,59.0,29.91,North,0,0.0,0.0,71,0.00,,,0.00,,2013-05-08 01:11:00,
2013-05-07 20:21:00,69.0,59.0,29.92,North,0,0.0,0.0,71,0.00,,,0.00,,2013-05-08 01:21:00,
2013-05-07 20:32:00,69.0,59.0,29.92,North,0,0.0,0.0,71,0.00,,,0.00,,2013-05-08 01:32:00,
2013-05-07 20:42:00,69.0,59.0,29.92,North,0,0.0,0.0,71,0.00,,,0.00,,2013-05-08 01:42:00,
2013-05-07 20:52:00,69.0,59.0,29.92,North,0,0.0,0.0,71,0.00,,,0.00,,2013-05-08 01:52:00,
2013-05-07 21:01:00,69.0,59.0,29.93,North,0,0.0,0.0,71,0.00,,,0.00,,2013-05-08 02:01:00,
2013-05-07 21:12:00,69.0,59.0,29.93,North,0,0.0,0.0,71,0.00,,,0.00,,2013-05-08 02:12:00,
2013-05-07 21:22:00,69.0,59.0,29.93,North,0,0.0,0.0,71,0.00,,,0.00,,2013-05-08 02:22:00,
2013-05-07 21:31:00,69.0,59.0,29.93,North,0,0.0,0.0,71,0.00,,,0.00,,2013-05-08 02:31:00,
2013-05-07 21:42:00,69.0,59.0,29.93,North,0,0.0,0.0,71,0.00,,,0.00,,2013-05-08 02:42:00,
2013-05-07 21:52:00,69.0,59.0,29.93,North,0,0.0,0.0,71,0.00,,,0.00,,2013-05-08 02:52:00,
2013-05-07 22:02:00,69.0,59.0,29.93,North,0,0.0,0.0,71,0.00,,,0.00,,2013-05-08 03:02:00,
2013-05-07 22:11:00,69.0,59.0,29.93,North,0,0.0,0.0,71,0.00,,,0.00,,2013-05-08 03:11:00,
2013-05-07 22:21:00,69.0,59.0,29.93,North,0,0.0,0.0,71,0.00,,,0.00,,2013-05-08 03:21:00,
2013-05-07 22:32:00,69.0,59.0,29.93,North,0,0.0,0.0,71,0.00,,,0.00,,2013-05-08 03:32:00,
2013-05-07 22:43:00,69.0,59.0,29.93,North,0,0.0,0.0,71,0.00,,,0.00,,2013-05-08 03:43:00,
2013-05-07 22:52:00,69.0,59.0,29.93,North,0,0.0,0.0,71,0.00,,,0.00,,2013-05-08 03:52:00,
2013-05-07 23:02:00,69.0,59.0,29.93,North,0,0.0,0.0,71,0.00,,,0.00,,2013-05-08 04:02:00,
2013-05-07 23:13:00,69.0,59.0,29.93,North,0,0.0,0.0,71,0.00,,,0.00,,2013-05-08 04:13:00,
2013-05-07 23:23:00,69.0,59.0,29.92,North,0,0.0,0.0,71,0.00,,,0.00,,2013-05-08 04:23:00,
2013-05-07 23:33:00,69.0,59.0,29.92,North,0,0.0,0.0,71,0.00,,,0.00,,2013-05-08 04:33:00,
2013-05-07 23:42:00,69.0,59.0,29.92,North,0,0.0,0.0,71,0.00,,,0.00,,2013-05-08 04:42:00,
2013-05-07 23:53:00,69.0,59.0,29.92,North,0,0.0,0.0,71,0.00,,,0.00,,2013-05-08 04:53:00,